sensor_id;sensor_type;location;lat;lon;timestamp;P1;durP1;ratioP1;P2;durP2;ratioP2
75937;SDS011;64615;32.062;34.834;2023-10-08T00:00:21;6.75;;;3.75;;
75937;SDS011;64615;32.062;34.834;2023-10-08T00:03:06;6.85;;;3.45;;
75937;SDS011;64615;32.062;34.834;2023-10-08T00:05:37;7.70;;;4.05;;
75937;SDS011;64615;32.062;34.834;2023-10-08T00:08:03;7.53;;;3.92;;
75937;SDS011;64615;32.062;34.834;2023-10-08T00:10:39;8.40;;;4.18;;
75937;SDS011;64615;32.062;34.834;2023-10-08T00:13:06;10.15;;;4.25;;
75937;SDS011;64615;32.062;34.834;2023-10-08T00:15:37;6.55;;;3.92;;
75937;SDS011;64615;32.062;34.834;2023-10-08T00:18:07;6.95;;;3.55;;
75937;SDS011;64615;32.062;34.834;2023-10-08T00:20:36;7.85;;;4.05;;
75937;SDS011;64615;32.062;34.834;2023-10-08T00:23:13;8.18;;;4.13;;
75937;SDS011;64615;32.062;34.834;2023-10-08T00:25:42;8.27;;;4.25;;
75937;SDS011;64615;32.062;34.834;2023-10-08T00:28:12;7.45;;;4.53;;
75937;SDS011;64615;32.062;34.834;2023-10-08T00:30:42;9.27;;;4.53;;
75937;SDS011;64615;32.062;34.834;2023-10-08T00:33:08;10.25;;;4.43;;
75937;SDS011;64615;32.062;34.834;2023-10-08T00:35:41;7.50;;;4.15;;
75937;SDS011;64615;32.062;34.834;2023-10-08T00:38:10;8.13;;;4.35;;
75937;SDS011;64615;32.062;34.834;2023-10-08T00:40:41;7.47;;;4.45;;
75937;SDS011;64615;32.062;34.834;2023-10-08T00:43:28;8.35;;;4.38;;
75937;SDS011;64615;32.062;34.834;2023-10-08T00:45:55;8.10;;;4.50;;
75937;SDS011;64615;32.062;34.834;2023-10-08T00:48:24;8.63;;;4.60;;
75937;SDS011;64615;32.062;34.834;2023-10-08T00:50:53;9.45;;;4.50;;
75937;SDS011;64615;32.062;34.834;2023-10-08T00:53:34;7.95;;;4.50;;
75937;SDS011;64615;32.062;34.834;2023-10-08T00:56:04;8.07;;;4.57;;
75937;SDS011;64615;32.062;34.834;2023-10-08T00:58:37;9.68;;;4.30;;
75937;SDS011;64615;32.062;34.834;2023-10-08T01:01:03;7.70;;;4.50;;
75937;SDS011;64615;32.062;34.834;2023-10-08T01:03:30;10.30;;;4.93;;
75937;SDS011;64615;32.062;34.834;2023-10-08T01:06:00;11.43;;;5.60;;
75937;SDS011;64615;32.062;34.834;2023-10-08T01:08:28;10.27;;;5.72;;
75937;SDS011;64615;32.062;34.834;2023-10-08T01:11:17;11.38;;;5.07;;
75937;SDS011;64615;32.062;34.834;2023-10-08T01:13:43;13.77;;;5.50;;
75937;SDS011;64615;32.062;34.834;2023-10-08T01:16:11;11.55;;;5.97;;
75937;SDS011;64615;32.062;34.834;2023-10-08T01:18:37;11.45;;;5.80;;
75937;SDS011;64615;32.062;34.834;2023-10-08T01:21:08;12.82;;;5.75;;
75937;SDS011;64615;32.062;34.834;2023-10-08T01:23:34;11.27;;;5.47;;
75937;SDS011;64615;32.062;34.834;2023-10-08T01:25:59;10.63;;;5.97;;
75937;SDS011;64615;32.062;34.834;2023-10-08T01:28:36;13.40;;;5.75;;
75937;SDS011;64615;32.062;34.834;2023-10-08T01:31:02;16.23;;;6.40;;
75937;SDS011;64615;32.062;34.834;2023-10-08T01:33:29;14.85;;;6.63;;
75937;SDS011;64615;32.062;34.834;2023-10-08T01:35:57;13.88;;;6.47;;
75937;SDS011;64615;32.062;34.834;2023-10-08T01:38:31;12.85;;;6.55;;
75937;SDS011;64615;32.062;34.834;2023-10-08T01:41:00;12.60;;;6.47;;
75937;SDS011;64615;32.062;34.834;2023-10-08T01:43:30;14.93;;;6.30;;
75937;SDS011;64615;32.062;34.834;2023-10-08T01:45:56;12.20;;;6.40;;
75937;SDS011;64615;32.062;34.834;2023-10-08T01:48:22;13.80;;;6.72;;
75937;SDS011;64615;32.062;34.834;2023-10-08T01:50:57;14.80;;;7.05;;
75937;SDS011;64615;32.062;34.834;2023-10-08T01:53:29;12.60;;;6.93;;
75937;SDS011;64615;32.062;34.834;2023-10-08T01:55:56;10.57;;;6.32;;
75937;SDS011;64615;32.062;34.834;2023-10-08T01:58:23;12.63;;;6.38;;
75937;SDS011;64615;32.062;34.834;2023-10-08T02:00:49;14.55;;;6.78;;
75937;SDS011;64615;32.062;34.834;2023-10-08T02:03:17;12.98;;;6.18;;
75937;SDS011;64615;32.062;34.834;2023-10-08T02:05:46;12.18;;;6.38;;
75937;SDS011;64615;32.062;34.834;2023-10-08T02:08:12;14.40;;;6.97;;
75937;SDS011;64615;32.062;34.834;2023-10-08T02:10:42;14.07;;;6.90;;
75937;SDS011;64615;32.062;34.834;2023-10-08T02:13:12;16.52;;;7.03;;
75937;SDS011;64615;32.062;34.834;2023-10-08T02:15:43;13.57;;;6.88;;
75937;SDS011;64615;32.062;34.834;2023-10-08T02:18:10;15.55;;;6.95;;
75937;SDS011;64615;32.062;34.834;2023-10-08T02:20:38;16.10;;;7.03;;
75937;SDS011;64615;32.062;34.834;2023-10-08T02:23:05;17.55;;;6.95;;
75937;SDS011;64615;32.062;34.834;2023-10-08T02:25:31;15.65;;;7.22;;
75937;SDS011;64615;32.062;34.834;2023-10-08T02:27:57;14.73;;;6.45;;
75937;SDS011;64615;32.062;34.834;2023-10-08T02:30:23;14.32;;;7.35;;
75937;SDS011;64615;32.062;34.834;2023-10-08T02:32:48;14.15;;;7.05;;
75937;SDS011;64615;32.062;34.834;2023-10-08T02:35:14;16.52;;;7.32;;
75937;SDS011;64615;32.062;34.834;2023-10-08T02:37:40;12.90;;;6.53;;
75937;SDS011;64615;32.062;34.834;2023-10-08T02:40:09;17.75;;;6.97;;
75937;SDS011;64615;32.062;34.834;2023-10-08T02:42:44;17.48;;;7.20;;
75937;SDS011;64615;32.062;34.834;2023-10-08T02:45:11;15.57;;;7.72;;
75937;SDS011;64615;32.062;34.834;2023-10-08T02:47:41;16.77;;;7.32;;
75937;SDS011;64615;32.062;34.834;2023-10-08T02:50:10;18.67;;;8.20;;
75937;SDS011;64615;32.062;34.834;2023-10-08T02:52:42;24.23;;;9.82;;
75937;SDS011;64615;32.062;34.834;2023-10-08T02:55:10;25.95;;;10.05;;
75937;SDS011;64615;32.062;34.834;2023-10-08T02:57:53;21.17;;;10.48;;
75937;SDS011;64615;32.062;34.834;2023-10-08T03:00:19;28.20;;;11.43;;
75937;SDS011;64615;32.062;34.834;2023-10-08T03:02:46;26.70;;;10.68;;
75937;SDS011;64615;32.062;34.834;2023-10-08T03:05:12;32.88;;;11.88;;
75937;SDS011;64615;32.062;34.834;2023-10-08T03:07:43;31.15;;;12.35;;
75937;SDS011;64615;32.062;34.834;2023-10-08T03:10:09;30.27;;;12.00;;
75937;SDS011;64615;32.062;34.834;2023-10-08T03:12:45;27.70;;;10.88;;
75937;SDS011;64615;32.062;34.834;2023-10-08T03:15:15;29.38;;;12.23;;
75937;SDS011;64615;32.062;34.834;2023-10-08T03:18:03;26.73;;;12.02;;
75937;SDS011;64615;32.062;34.834;2023-10-08T03:20:39;33.60;;;11.80;;
75937;SDS011;64615;32.062;34.834;2023-10-08T03:23:14;27.73;;;12.07;;
75937;SDS011;64615;32.062;34.834;2023-10-08T03:25:58;28.05;;;11.23;;
75937;SDS011;64615;32.062;34.834;2023-10-08T03:28:26;32.35;;;12.07;;
75937;SDS011;64615;32.062;34.834;2023-10-08T03:30:55;37.47;;;12.63;;
75937;SDS011;64615;32.062;34.834;2023-10-08T03:33:37;52.75;;;13.43;;
75937;SDS011;64615;32.062;34.834;2023-10-08T03:36:03;41.05;;;12.07;;
75937;SDS011;64615;32.062;34.834;2023-10-08T03:38:59;36.03;;;12.18;;
75937;SDS011;64615;32.062;34.834;2023-10-08T03:41:34;29.45;;;12.98;;
75937;SDS011;64615;32.062;34.834;2023-10-08T03:44:05;28.35;;;11.15;;
75937;SDS011;64615;32.062;34.834;2023-10-08T03:46:37;32.35;;;11.23;;
75937;SDS011;64615;32.062;34.834;2023-10-08T03:49:10;30.08;;;10.63;;
75937;SDS011;64615;32.062;34.834;2023-10-08T03:51:48;27.10;;;10.68;;
75937;SDS011;64615;32.062;34.834;2023-10-08T03:54:18;24.70;;;11.52;;
75937;SDS011;64615;32.062;34.834;2023-10-08T03:56:47;27.30;;;11.45;;
75937;SDS011;64615;32.062;34.834;2023-10-08T03:59:16;30.60;;;11.13;;
75937;SDS011;64615;32.062;34.834;2023-10-08T04:01:46;28.70;;;10.48;;
75937;SDS011;64615;32.062;34.834;2023-10-08T04:04:14;29.70;;;10.50;;
75937;SDS011;64615;32.062;34.834;2023-10-08T04:06:41;27.23;;;10.15;;
75937;SDS011;64615;32.062;34.834;2023-10-08T04:09:19;22.70;;;10.10;;
75937;SDS011;64615;32.062;34.834;2023-10-08T04:11:51;29.85;;;11.25;;
75937;SDS011;64615;32.062;34.834;2023-10-08T04:14:18;24.25;;;11.10;;
75937;SDS011;64615;32.062;34.834;2023-10-08T04:16:44;25.13;;;10.07;;
75937;SDS011;64615;32.062;34.834;2023-10-08T04:19:10;26.58;;;10.45;;
75937;SDS011;64615;32.062;34.834;2023-10-08T04:21:37;24.00;;;10.85;;
75937;SDS011;64615;32.062;34.834;2023-10-08T04:24:05;22.70;;;10.50;;
75937;SDS011;64615;32.062;34.834;2023-10-08T04:26:31;23.30;;;9.77;;
75937;SDS011;64615;32.062;34.834;2023-10-08T04:28:58;24.90;;;9.93;;
75937;SDS011;64615;32.062;34.834;2023-10-08T04:31:28;20.45;;;10.48;;
75937;SDS011;64615;32.062;34.834;2023-10-08T04:34:04;27.05;;;11.10;;
75937;SDS011;64615;32.062;34.834;2023-10-08T04:36:43;26.17;;;10.55;;
75937;SDS011;64615;32.062;34.834;2023-10-08T04:41:41;27.55;;;11.50;;
75937;SDS011;64615;32.062;34.834;2023-10-08T04:44:10;26.23;;;10.48;;
75937;SDS011;64615;32.062;34.834;2023-10-08T04:46:43;40.33;;;11.38;;
75937;SDS011;64615;32.062;34.834;2023-10-08T04:49:16;26.45;;;11.57;;
75937;SDS011;64615;32.062;34.834;2023-10-08T04:51:54;25.52;;;10.65;;
75937;SDS011;64615;32.062;34.834;2023-10-08T04:54:23;25.63;;;11.00;;
75937;SDS011;64615;32.062;34.834;2023-10-08T04:56:50;33.58;;;12.45;;
75937;SDS011;64615;32.062;34.834;2023-10-08T05:01:47;35.58;;;11.15;;
75937;SDS011;64615;32.062;34.834;2023-10-08T05:04:14;30.20;;;11.32;;
75937;SDS011;64615;32.062;34.834;2023-10-08T05:06:51;28.85;;;11.45;;
75937;SDS011;64615;32.062;34.834;2023-10-08T05:09:26;31.92;;;12.40;;
75937;SDS011;64615;32.062;34.834;2023-10-08T05:12:10;41.55;;;11.55;;
75937;SDS011;64615;32.062;34.834;2023-10-08T05:14:55;35.08;;;11.52;;
75937;SDS011;64615;32.062;34.834;2023-10-08T05:17:41;22.33;;;10.75;;
75937;SDS011;64615;32.062;34.834;2023-10-08T05:20:17;27.65;;;10.68;;
75937;SDS011;64615;32.062;34.834;2023-10-08T05:23:06;34.35;;;11.60;;
75937;SDS011;64615;32.062;34.834;2023-10-08T05:25:55;29.63;;;11.32;;
75937;SDS011;64615;32.062;34.834;2023-10-08T05:28:24;27.38;;;11.65;;
75937;SDS011;64615;32.062;34.834;2023-10-08T05:30:51;29.35;;;10.82;;
75937;SDS011;64615;32.062;34.834;2023-10-08T05:33:36;27.70;;;11.95;;
75937;SDS011;64615;32.062;34.834;2023-10-08T05:36:23;35.78;;;11.15;;
75937;SDS011;64615;32.062;34.834;2023-10-08T05:39:15;43.40;;;11.05;;
75937;SDS011;64615;32.062;34.834;2023-10-08T05:42:00;30.25;;;11.00;;
75937;SDS011;64615;32.062;34.834;2023-10-08T05:44:45;34.28;;;10.85;;
75937;SDS011;64615;32.062;34.834;2023-10-08T05:47:15;25.83;;;10.65;;
75937;SDS011;64615;32.062;34.834;2023-10-08T05:50:05;31.10;;;11.15;;
75937;SDS011;64615;32.062;34.834;2023-10-08T05:52:43;28.30;;;9.80;;
75937;SDS011;64615;32.062;34.834;2023-10-08T05:55:25;28.23;;;10.75;;
75937;SDS011;64615;32.062;34.834;2023-10-08T05:58:09;31.17;;;9.77;;
75937;SDS011;64615;32.062;34.834;2023-10-08T06:00:45;23.98;;;8.80;;
75937;SDS011;64615;32.062;34.834;2023-10-08T06:03:12;21.13;;;8.77;;
75937;SDS011;64615;32.062;34.834;2023-10-08T06:06:07;19.08;;;8.85;;
75937;SDS011;64615;32.062;34.834;2023-10-08T06:08:37;22.38;;;8.88;;
75937;SDS011;64615;32.062;34.834;2023-10-08T06:11:29;21.30;;;10.00;;
75937;SDS011;64615;32.062;34.834;2023-10-08T06:14:12;20.25;;;8.40;;
75937;SDS011;64615;32.062;34.834;2023-10-08T06:17:01;18.60;;;8.20;;
75937;SDS011;64615;32.062;34.834;2023-10-08T06:19:39;20.35;;;8.73;;
75937;SDS011;64615;32.062;34.834;2023-10-08T06:22:05;23.08;;;9.07;;
75937;SDS011;64615;32.062;34.834;2023-10-08T06:24:30;16.77;;;7.90;;
75937;SDS011;64615;32.062;34.834;2023-10-08T06:26:59;17.23;;;7.80;;
75937;SDS011;64615;32.062;34.834;2023-10-08T06:29:30;17.75;;;7.93;;
75937;SDS011;64615;32.062;34.834;2023-10-08T06:31:56;16.95;;;7.53;;
75937;SDS011;64615;32.062;34.834;2023-10-08T06:34:27;17.90;;;8.02;;
75937;SDS011;64615;32.062;34.834;2023-10-08T06:36:55;18.98;;;8.18;;
75937;SDS011;64615;32.062;34.834;2023-10-08T06:39:22;17.00;;;7.45;;
75937;SDS011;64615;32.062;34.834;2023-10-08T06:41:52;18.92;;;7.53;;
75937;SDS011;64615;32.062;34.834;2023-10-08T06:44:18;17.52;;;7.28;;
75937;SDS011;64615;32.062;34.834;2023-10-08T06:46:44;14.73;;;7.45;;
75937;SDS011;64615;32.062;34.834;2023-10-08T06:49:10;18.17;;;7.43;;
75937;SDS011;64615;32.062;34.834;2023-10-08T06:51:37;18.52;;;7.38;;
75937;SDS011;64615;32.062;34.834;2023-10-08T06:54:03;15.65;;;6.65;;
75937;SDS011;64615;32.062;34.834;2023-10-08T06:56:29;16.33;;;7.05;;
75937;SDS011;64615;32.062;34.834;2023-10-08T06:58:56;15.90;;;7.22;;
75937;SDS011;64615;32.062;34.834;2023-10-08T07:01:24;15.40;;;7.00;;
75937;SDS011;64615;32.062;34.834;2023-10-08T07:03:50;16.23;;;6.63;;
75937;SDS011;64615;32.062;34.834;2023-10-08T07:06:17;12.32;;;6.78;;
75937;SDS011;64615;32.062;34.834;2023-10-08T07:08:56;12.75;;;6.78;;
75937;SDS011;64615;32.062;34.834;2023-10-08T07:11:30;13.68;;;6.20;;
75937;SDS011;64615;32.062;34.834;2023-10-08T07:14:02;14.48;;;6.88;;
75937;SDS011;64615;32.062;34.834;2023-10-08T07:16:29;13.52;;;5.90;;
75937;SDS011;64615;32.062;34.834;2023-10-08T07:18:58;12.32;;;6.45;;
75937;SDS011;64615;32.062;34.834;2023-10-08T07:21:28;11.82;;;5.97;;
75937;SDS011;64615;32.062;34.834;2023-10-08T07:23:57;10.63;;;6.07;;
75937;SDS011;64615;32.062;34.834;2023-10-08T07:26:25;12.35;;;6.35;;
75937;SDS011;64615;32.062;34.834;2023-10-08T07:29:01;12.48;;;6.45;;
75937;SDS011;64615;32.062;34.834;2023-10-08T07:31:33;14.13;;;6.13;;
75937;SDS011;64615;32.062;34.834;2023-10-08T07:34:01;12.93;;;6.45;;
75937;SDS011;64615;32.062;34.834;2023-10-08T07:36:46;11.30;;;6.05;;
75937;SDS011;64615;32.062;34.834;2023-10-08T07:39:14;11.60;;;6.10;;
75937;SDS011;64615;32.062;34.834;2023-10-08T07:42:07;12.50;;;5.93;;
75937;SDS011;64615;32.062;34.834;2023-10-08T07:44:34;12.23;;;6.07;;
75937;SDS011;64615;32.062;34.834;2023-10-08T07:47:04;10.30;;;5.78;;
75937;SDS011;64615;32.062;34.834;2023-10-08T07:49:37;10.85;;;5.53;;
75937;SDS011;64615;32.062;34.834;2023-10-08T07:52:03;10.48;;;5.72;;
75937;SDS011;64615;32.062;34.834;2023-10-08T07:54:29;10.45;;;5.85;;
75937;SDS011;64615;32.062;34.834;2023-10-08T07:56:59;12.75;;;6.35;;
75937;SDS011;64615;32.062;34.834;2023-10-08T07:59:39;11.45;;;5.63;;
75937;SDS011;64615;32.062;34.834;2023-10-08T08:02:12;9.02;;;4.80;;
75937;SDS011;64615;32.062;34.834;2023-10-08T08:04:42;12.57;;;5.50;;
75937;SDS011;64615;32.062;34.834;2023-10-08T08:07:10;10.23;;;5.25;;
75937;SDS011;64615;32.062;34.834;2023-10-08T08:09:43;12.32;;;6.25;;
75937;SDS011;64615;32.062;34.834;2023-10-08T08:12:19;10.95;;;5.60;;
75937;SDS011;64615;32.062;34.834;2023-10-08T08:14:46;11.48;;;5.47;;
75937;SDS011;64615;32.062;34.834;2023-10-08T08:17:13;10.13;;;5.63;;
75937;SDS011;64615;32.062;34.834;2023-10-08T08:19:40;10.57;;;5.53;;
75937;SDS011;64615;32.062;34.834;2023-10-08T08:22:12;9.75;;;5.13;;
75937;SDS011;64615;32.062;34.834;2023-10-08T08:24:52;9.25;;;5.15;;
75937;SDS011;64615;32.062;34.834;2023-10-08T08:27:39;11.88;;;5.28;;
75937;SDS011;64615;32.062;34.834;2023-10-08T08:30:05;11.02;;;5.70;;
75937;SDS011;64615;32.062;34.834;2023-10-08T08:32:41;9.15;;;5.00;;
75937;SDS011;64615;32.062;34.834;2023-10-08T08:35:12;8.10;;;5.13;;
75937;SDS011;64615;32.062;34.834;2023-10-08T08:37:42;10.73;;;5.32;;
75937;SDS011;64615;32.062;34.834;2023-10-08T08:40:08;12.13;;;5.15;;
75937;SDS011;64615;32.062;34.834;2023-10-08T08:42:42;18.38;;;5.30;;
75937;SDS011;64615;32.062;34.834;2023-10-08T08:47:38;20.58;;;5.20;;
75937;SDS011;64615;32.062;34.834;2023-10-08T08:50:09;25.58;;;6.53;;
75937;SDS011;64615;32.062;34.834;2023-10-08T08:52:36;16.35;;;6.00;;
75937;SDS011;64615;32.062;34.834;2023-10-08T08:55:03;25.15;;;6.40;;
75937;SDS011;64615;32.062;34.834;2023-10-08T08:57:39;18.95;;;5.95;;
75937;SDS011;64615;32.062;34.834;2023-10-08T09:00:07;19.10;;;5.55;;
75937;SDS011;64615;32.062;34.834;2023-10-08T09:02:40;24.30;;;6.25;;
75937;SDS011;64615;32.062;34.834;2023-10-08T09:05:06;17.45;;;6.53;;
75937;SDS011;64615;32.062;34.834;2023-10-08T09:13:03;14.68;;;6.10;;
75937;SDS011;64615;32.062;34.834;2023-10-08T09:15:30;13.57;;;5.80;;
75937;SDS011;64615;32.062;34.834;2023-10-08T09:17:57;14.52;;;6.13;;
75937;SDS011;64615;32.062;34.834;2023-10-08T09:20:30;14.23;;;6.38;;
75937;SDS011;64615;32.062;34.834;2023-10-08T09:23:08;19.65;;;5.95;;
75937;SDS011;64615;32.062;34.834;2023-10-08T09:25:39;14.40;;;6.63;;
75937;SDS011;64615;32.062;34.834;2023-10-08T09:28:06;13.32;;;6.63;;
75937;SDS011;64615;32.062;34.834;2023-10-08T09:30:33;14.95;;;7.40;;
75937;SDS011;64615;32.062;34.834;2023-10-08T09:33:08;18.45;;;8.30;;
75937;SDS011;64615;32.062;34.834;2023-10-08T09:35:35;24.40;;;6.07;;
75937;SDS011;64615;32.062;34.834;2023-10-08T09:38:05;25.15;;;6.65;;
75937;SDS011;64615;32.062;34.834;2023-10-08T09:40:37;13.65;;;5.55;;
75937;SDS011;64615;32.062;34.834;2023-10-08T09:43:04;16.38;;;5.57;;
75937;SDS011;64615;32.062;34.834;2023-10-08T09:45:30;21.20;;;5.25;;
75937;SDS011;64615;32.062;34.834;2023-10-08T09:47:56;13.30;;;5.10;;
75937;SDS011;64615;32.062;34.834;2023-10-08T09:50:27;14.68;;;5.28;;
75937;SDS011;64615;32.062;34.834;2023-10-08T09:53:11;17.75;;;5.32;;
75937;SDS011;64615;32.062;34.834;2023-10-08T09:58:22;20.27;;;5.53;;
75937;SDS011;64615;32.062;34.834;2023-10-08T10:00:49;15.52;;;4.63;;
75937;SDS011;64615;32.062;34.834;2023-10-08T10:03:17;15.40;;;5.35;;
75937;SDS011;64615;32.062;34.834;2023-10-08T10:05:44;11.43;;;4.90;;
75937;SDS011;64615;32.062;34.834;2023-10-08T10:08:10;12.63;;;4.75;;
75937;SDS011;64615;32.062;34.834;2023-10-08T10:10:36;12.52;;;5.00;;
75937;SDS011;64615;32.062;34.834;2023-10-08T10:13:09;9.65;;;4.53;;
75937;SDS011;64615;32.062;34.834;2023-10-08T10:15:44;11.52;;;5.07;;
75937;SDS011;64615;32.062;34.834;2023-10-08T10:18:13;9.25;;;4.18;;
75937;SDS011;64615;32.062;34.834;2023-10-08T10:20:44;8.60;;;4.88;;
75937;SDS011;64615;32.062;34.834;2023-10-08T10:26:24;11.85;;;5.05;;
75937;SDS011;64615;32.062;34.834;2023-10-08T10:31:52;7.75;;;4.10;;
75937;SDS011;64615;32.062;34.834;2023-10-08T10:34:25;11.32;;;4.50;;
75937;SDS011;64615;32.062;34.834;2023-10-08T10:36:52;8.00;;;4.20;;
75937;SDS011;64615;32.062;34.834;2023-10-08T10:39:34;8.80;;;4.00;;
75937;SDS011;64615;32.062;34.834;2023-10-08T10:42:05;11.32;;;4.40;;
75937;SDS011;64615;32.062;34.834;2023-10-08T10:44:44;10.55;;;4.80;;
75937;SDS011;64615;32.062;34.834;2023-10-08T10:47:09;15.27;;;4.55;;
75937;SDS011;64615;32.062;34.834;2023-10-08T10:49:44;10.70;;;4.38;;
75937;SDS011;64615;32.062;34.834;2023-10-08T10:52:17;9.65;;;4.43;;
75937;SDS011;64615;32.062;34.834;2023-10-08T10:55:00;10.55;;;4.13;;
75937;SDS011;64615;32.062;34.834;2023-10-08T10:57:52;11.25;;;4.32;;
75937;SDS011;64615;32.062;34.834;2023-10-08T11:00:29;13.88;;;4.57;;
75937;SDS011;64615;32.062;34.834;2023-10-08T11:02:59;12.30;;;4.47;;
75937;SDS011;64615;32.062;34.834;2023-10-08T11:05:31;11.35;;;4.43;;
75937;SDS011;64615;32.062;34.834;2023-10-08T11:08:02;9.25;;;4.30;;
75937;SDS011;64615;32.062;34.834;2023-10-08T11:10:34;9.13;;;4.05;;
75937;SDS011;64615;32.062;34.834;2023-10-08T11:13:06;8.73;;;4.65;;
75937;SDS011;64615;32.062;34.834;2023-10-08T11:15:42;9.07;;;4.18;;
75937;SDS011;64615;32.062;34.834;2023-10-08T11:18:14;7.95;;;3.85;;
75937;SDS011;64615;32.062;34.834;2023-10-08T11:20:40;6.88;;;3.60;;
75937;SDS011;64615;32.062;34.834;2023-10-08T11:23:09;7.47;;;3.88;;
75937;SDS011;64615;32.062;34.834;2023-10-08T11:25:54;8.82;;;3.85;;
75937;SDS011;64615;32.062;34.834;2023-10-08T11:28:25;10.98;;;3.60;;
75937;SDS011;64615;32.062;34.834;2023-10-08T11:30:52;6.93;;;3.63;;
75937;SDS011;64615;32.062;34.834;2023-10-08T11:33:18;8.80;;;4.20;;
75937;SDS011;64615;32.062;34.834;2023-10-08T11:35:57;7.00;;;3.55;;
75937;SDS011;64615;32.062;34.834;2023-10-08T11:38:26;7.43;;;4.03;;
75937;SDS011;64615;32.062;34.834;2023-10-08T11:40:53;7.53;;;3.80;;
75937;SDS011;64615;32.062;34.834;2023-10-08T11:43:24;7.68;;;3.80;;
75937;SDS011;64615;32.062;34.834;2023-10-08T11:45:50;8.85;;;3.70;;
75937;SDS011;64615;32.062;34.834;2023-10-08T11:48:17;7.65;;;3.70;;
75937;SDS011;64615;32.062;34.834;2023-10-08T11:50:51;8.30;;;3.60;;
75937;SDS011;64615;32.062;34.834;2023-10-08T11:53:17;12.43;;;4.10;;
75937;SDS011;64615;32.062;34.834;2023-10-08T11:55:44;7.03;;;3.50;;
75937;SDS011;64615;32.062;34.834;2023-10-08T11:58:13;9.23;;;3.92;;
75937;SDS011;64615;32.062;34.834;2023-10-08T12:00:43;8.30;;;3.72;;
75937;SDS011;64615;32.062;34.834;2023-10-08T12:03:10;10.50;;;4.53;;
75937;SDS011;64615;32.062;34.834;2023-10-08T12:05:37;9.85;;;4.07;;
75937;SDS011;64615;32.062;34.834;2023-10-08T12:08:08;7.00;;;3.58;;
75937;SDS011;64615;32.062;34.834;2023-10-08T12:10:34;8.45;;;4.15;;
75937;SDS011;64615;32.062;34.834;2023-10-08T12:13:00;8.48;;;3.78;;
75937;SDS011;64615;32.062;34.834;2023-10-08T12:15:26;7.50;;;3.92;;
75937;SDS011;64615;32.062;34.834;2023-10-08T12:17:59;8.23;;;3.75;;
75937;SDS011;64615;32.062;34.834;2023-10-08T12:20:38;11.75;;;3.97;;
75937;SDS011;64615;32.062;34.834;2023-10-08T12:23:04;7.53;;;3.70;;
75937;SDS011;64615;32.062;34.834;2023-10-08T12:25:31;11.20;;;3.58;;
75937;SDS011;64615;32.062;34.834;2023-10-08T12:27:58;9.25;;;3.80;;
75937;SDS011;64615;32.062;34.834;2023-10-08T12:30:29;6.13;;;3.38;;
75937;SDS011;64615;32.062;34.834;2023-10-08T12:33:00;7.65;;;3.78;;
75937;SDS011;64615;32.062;34.834;2023-10-08T12:35:28;8.90;;;3.42;;
75937;SDS011;64615;32.062;34.834;2023-10-08T12:37:54;7.95;;;3.78;;
75937;SDS011;64615;32.062;34.834;2023-10-08T12:40:20;7.20;;;3.35;;
75937;SDS011;64615;32.062;34.834;2023-10-08T12:42:52;7.57;;;3.30;;
75937;SDS011;64615;32.062;34.834;2023-10-08T12:45:19;9.30;;;3.70;;
75937;SDS011;64615;32.062;34.834;2023-10-08T12:47:48;8.57;;;3.35;;
75937;SDS011;64615;32.062;34.834;2023-10-08T12:50:16;6.10;;;3.17;;
75937;SDS011;64615;32.062;34.834;2023-10-08T12:52:43;6.20;;;3.33;;
75937;SDS011;64615;32.062;34.834;2023-10-08T12:55:18;7.68;;;3.40;;
75937;SDS011;64615;32.062;34.834;2023-10-08T12:57:50;7.00;;;3.28;;
75937;SDS011;64615;32.062;34.834;2023-10-08T13:00:21;7.10;;;3.28;;
75937;SDS011;64615;32.062;34.834;2023-10-08T13:05:18;5.75;;;2.88;;
75937;SDS011;64615;32.062;34.834;2023-10-08T13:07:53;8.43;;;3.42;;
75937;SDS011;64615;32.062;34.834;2023-10-08T13:10:21;7.15;;;3.38;;
75937;SDS011;64615;32.062;34.834;2023-10-08T13:12:47;8.75;;;3.53;;
75937;SDS011;64615;32.062;34.834;2023-10-08T13:15:14;7.32;;;3.60;;
75937;SDS011;64615;32.062;34.834;2023-10-08T13:17:39;7.47;;;3.30;;
75937;SDS011;64615;32.062;34.834;2023-10-08T13:20:14;8.13;;;3.75;;
75937;SDS011;64615;32.062;34.834;2023-10-08T13:22:42;13.10;;;4.85;;
75937;SDS011;64615;32.062;34.834;2023-10-08T13:25:08;27.55;;;5.25;;
75937;SDS011;64615;32.062;34.834;2023-10-08T13:27:34;19.65;;;6.65;;
75937;SDS011;64615;32.062;34.834;2023-10-08T13:30:07;25.10;;;5.97;;
75937;SDS011;64615;32.062;34.834;2023-10-08T13:32:36;19.75;;;6.68;;
75937;SDS011;64615;32.062;34.834;2023-10-08T13:35:02;15.48;;;6.53;;
75937;SDS011;64615;32.062;34.834;2023-10-08T13:37:31;21.85;;;6.15;;
75937;SDS011;64615;32.062;34.834;2023-10-08T13:42:23;17.17;;;6.45;;
75937;SDS011;64615;32.062;34.834;2023-10-08T13:44:49;18.92;;;6.28;;
75937;SDS011;64615;32.062;34.834;2023-10-08T13:47:14;20.35;;;6.25;;
75937;SDS011;64615;32.062;34.834;2023-10-08T13:49:41;24.23;;;6.53;;
75937;SDS011;64615;32.062;34.834;2023-10-08T13:52:08;21.02;;;6.28;;
75937;SDS011;64615;32.062;34.834;2023-10-08T13:54:34;29.95;;;6.22;;
75937;SDS011;64615;32.062;34.834;2023-10-08T13:57:04;17.75;;;6.07;;
75937;SDS011;64615;32.062;34.834;2023-10-08T13:59:33;17.35;;;6.68;;
75937;SDS011;64615;32.062;34.834;2023-10-08T14:01:59;16.05;;;7.00;;
75937;SDS011;64615;32.062;34.834;2023-10-08T14:04:27;19.77;;;6.53;;
75937;SDS011;64615;32.062;34.834;2023-10-08T14:06:55;16.02;;;6.60;;
75937;SDS011;64615;32.062;34.834;2023-10-08T14:09:23;18.55;;;6.55;;
75937;SDS011;64615;32.062;34.834;2023-10-08T14:12:02;14.32;;;6.63;;
75937;SDS011;64615;32.062;34.834;2023-10-08T14:14:28;15.75;;;6.53;;
75937;SDS011;64615;32.062;34.834;2023-10-08T14:16:59;20.27;;;6.80;;
75937;SDS011;64615;32.062;34.834;2023-10-08T14:19:30;30.83;;;7.55;;
75937;SDS011;64615;32.062;34.834;2023-10-08T14:22:26;24.58;;;6.18;;
75937;SDS011;64615;32.062;34.834;2023-10-08T14:24:52;31.45;;;7.40;;
75937;SDS011;64615;32.062;34.834;2023-10-08T14:27:26;18.95;;;7.15;;
75937;SDS011;64615;32.062;34.834;2023-10-08T14:30:08;17.60;;;6.88;;
75937;SDS011;64615;32.062;34.834;2023-10-08T14:32:41;18.92;;;7.10;;
75937;SDS011;64615;32.062;34.834;2023-10-08T14:35:11;16.33;;;7.05;;
75937;SDS011;64615;32.062;34.834;2023-10-08T14:37:56;16.15;;;6.72;;
75937;SDS011;64615;32.062;34.834;2023-10-08T14:40:40;15.65;;;7.20;;
75937;SDS011;64615;32.062;34.834;2023-10-08T14:43:24;15.02;;;7.30;;
75937;SDS011;64615;32.062;34.834;2023-10-08T14:45:50;15.63;;;7.95;;
75937;SDS011;64615;32.062;34.834;2023-10-08T14:48:18;16.83;;;7.72;;
75937;SDS011;64615;32.062;34.834;2023-10-08T14:50:43;14.63;;;8.98;;
75937;SDS011;64615;32.062;34.834;2023-10-08T14:53:11;22.45;;;7.50;;
75937;SDS011;64615;32.062;34.834;2023-10-08T14:55:36;16.85;;;6.72;;
75937;SDS011;64615;32.062;34.834;2023-10-08T14:58:02;17.67;;;8.73;;
75937;SDS011;64615;32.062;34.834;2023-10-08T15:00:33;18.13;;;7.97;;
75937;SDS011;64615;32.062;34.834;2023-10-08T15:03:03;17.70;;;8.30;;
75937;SDS011;64615;32.062;34.834;2023-10-08T15:05:29;15.40;;;7.53;;
75937;SDS011;64615;32.062;34.834;2023-10-08T15:07:58;18.02;;;7.72;;
75937;SDS011;64615;32.062;34.834;2023-10-08T15:10:24;15.40;;;6.95;;